Terminal Aerodrome Forecast
Issued by NWS

Home | Current Version | Previous Version | Graphics & Text | Print | Product List | Glossary On
Versions: 1 2 3 4 5 6 7 8 9 10 11 12 13 14 15 16 17 18 19
000
FTUS43 KGRB 261125
TAFCWA
TAF
KCWA 261125Z 2612/2712 28004KT P6SM SCT250
     FM261500 30006KT P6SM SCT050
     FM270200 VRB03KT P6SM BKN100
     FM271000 10004KT P6SM SHRA SCT030 OVC060=

USA.gov is the U.S. government's official web portal to all federal, state and local government web resources and services.